KCMX/CMX METAR and TAF weather

Enter ICAO airport designator
Station Type Date Time Source
KCMX METAR 2020/01/22 17:53 UTC NOAA

KCMX 221753Z AUTO 25013G24KT 10SM OVC014 M02/M06 A2984 RMK AO2 SLP121 60000 T10171056 11011 21044 50005


Station Type Date Time Source
KCMX Decoded METAR 2020/01/22 17:53 UTC NOAA

HANCOCK HOUGHTON CTY. MEMO, MI, United States (KCMX) 47-10N 088-29W 326M
Jan 22, 2020 - 12:53 PM EST / 2020.01.22 1753 UTC
Wind: from the WSW (250 degrees) at 15 MPH (13 KT) gusting to 28 MPH (24 KT):0
Visibility: 10 mile(s):0
Sky conditions: overcast
Temperature: 28.9 F (-1.7 C)
Windchill: 17 F (-8 C):1
Dew Point: 21.9 F (-5.6 C)
Relative Humidity: 74%
Pressure (altimeter): 29.84 in. Hg (1010 hPa)
Pressure tendency: 0.01 inches (0.5 hPa) higher than three hours ago
ob: KCMX 221753Z AUTO 25013G24KT 10SM OVC014 M02/M06 A2984 RMK AO2 SLP121 60000 T10171056 11011 21044 50005
cycle: 18

Station Type Date Time Source
KCMX TAF 2020/01/22 18:33 UTC NOAA

TAF KCMX 221731Z 2218/2318 25011G24KT P6SM OVC015
FM230000 22005KT P6SM VCSH OVC014
FM230200 VRB04KT 4SM BR VCSH OVC008
FM230400 VRB03KT 1 1/2SM -SN OVC005
FM231300 05007KT 3SM -SN BR OVC006

Example: see airport list